Time;durP1;ratioP1;P1;durP2;ratioP2;P2;SDS_P1;SDS_P2;PMS_P1;PMS_P2;Temp;Humidity;BMP_temperature;BMP_pressure;BME280_temperature;BME280_humidity;BME280_pressure;Samples;Min_cycle;Max_cycle;Signal;HPM_P1;HPM_P2
2022/09/07 00:00:21;;;;;;;12.53;4.60;;;;;;;13.01;47.00;101266.59;126188;1098;102636;-78
2022/09/07 00:03:07;;;;;;;12.93;4.80;;;;;;;12.94;47.06;101263.72;125905;1099;101793;-78
2022/09/07 00:05:43;;;;;;;10.20;4.70;;;;;;;12.89;47.04;101267.92;126352;1099;102270;-78
2022/09/07 00:08:15;;;;;;;16.33;5.03;;;;;;;12.86;47.34;101264.28;125807;1098;104201;-78
2022/09/07 00:10:55;;;;;;;15.43;5.00;;;;;;;12.80;47.80;101267.56;125840;1099;104156;-78
2022/09/07 00:13:32;;;;;;;14.57;4.87;;;;;;;12.78;47.65;101261.34;125721;1098;104083;-78
2022/09/07 00:16:08;;;;;;;13.37;5.00;;;;;;;12.75;47.76;101261.23;124868;1099;104232;-78
2022/09/07 00:18:39;;;;;;;12.85;5.20;;;;;;;12.75;47.97;101261.23;124984;1099;101786;-79
2022/09/07 00:21:12;;;;;;;12.17;5.13;;;;;;;12.70;48.27;101263.69;125012;1099;104300;-78
2022/09/07 00:23:48;;;;;;;13.77;5.23;;;;;;;12.68;48.24;101264.45;125821;1099;108910;-79
2022/09/07 00:26:22;;;;;;;14.15;4.90;;;;;;;12.66;48.61;101259.12;125750;1099;104239;-79
2022/09/07 00:28:56;;;;;;;13.40;4.80;;;;;;;12.63;48.58;101266.02;125783;1098;104163;-78
2022/09/07 00:31:29;;;;;;;13.40;4.83;;;;;;;12.63;48.71;101266.02;125748;1099;104357;-78
2022/09/07 00:34:01;;;;;;;13.43;4.87;;;;;;;12.58;48.81;101268.47;124924;1097;118272;-78
2022/09/07 00:36:32;;;;;;;10.57;4.60;;;;;;;12.51;48.87;101269.04;125099;1098;103040;-78
2022/09/07 00:39:03;;;;;;;15.27;4.97;;;;;;;12.46;48.81;101262.70;124989;1099;102443;-78
2022/09/07 00:41:34;;;;;;;13.77;4.70;;;;;;;12.49;49.19;101255.81;125719;1099;104165;-79
2022/09/07 00:44:36;;;;;;;11.53;4.97;;;;;;;12.46;49.15;101263.59;124944;1099;102839;-78
2022/09/07 00:47:11;;;;;;;12.63;5.00;;;;;;;12.38;49.22;101262.39;124939;1099;104179;-78
2022/09/07 00:49:43;;;;;;;9.73;4.83;;;;;;;12.32;49.54;101265.66;125756;1099;104159;-79
2022/09/07 00:52:16;;;;;;;13.90;5.17;;;;;;;12.30;49.58;101255.93;124832;1099;104645;-79
2022/09/07 00:54:51;;;;;;;14.57;5.30;;;;;;;12.30;49.83;101261.20;126496;1098;102101;-79
2022/09/07 00:57:22;;;;;;;12.60;4.90;;;;;;;12.30;49.81;101256.81;125976;1099;102160;-78
2022/09/07 00:59:56;;;;;;;15.50;4.95;;;;;;;12.31;49.75;101256.00;125025;1099;103075;-78
2022/09/07 01:02:27;;;;;;;12.35;5.03;;;;;;;12.34;49.96;101249.94;125827;1098;104185;-78
2022/09/07 01:05:05;;;;;;;15.13;4.77;;;;;;;12.34;49.92;101244.67;125118;1099;104284;-79
2022/09/07 01:07:37;;;;;;;12.00;4.80;;;;;;;12.31;50.17;101248.10;125817;1099;104183;-78
2022/09/07 01:10:10;;;;;;;15.73;5.03;;;;;;;12.29;50.25;101243.59;125815;1099;102807;-78
2022/09/07 01:12:41;;;;;;;13.50;4.77;;;;;;;12.25;50.48;101247.85;125902;1099;104239;-79
2022/09/07 01:15:12;;;;;;;12.17;4.93;;;;;;;12.23;50.20;101239.89;125779;1099;102290;-78
2022/09/07 01:17:56;;;;;;;16.00;5.00;;;;;;;12.22;50.42;101229.30;124936;1099;104696;-79
2022/09/07 01:20:36;;;;;;;;;;;;;;;12.15;50.54;101225.50;125798;1098;104296;-78
2022/09/07 01:23:38;;;;;;;13.80;5.20;;;;;;;12.12;50.85;101233.27;125017;1099;104255;-78
2022/09/07 01:26:38;;;;;;;9.67;4.30;;;;;;;12.04;50.68;101239.95;125713;1099;104220;-78
2022/09/07 01:29:16;;;;;;;10.67;4.43;;;;;;;11.95;50.84;101237.86;125696;1099;104050;-78
2022/09/07 01:32:00;;;;;;;12.67;4.43;;;;;;;11.96;51.03;101241.38;125747;1099;102165;-77
2022/09/07 01:34:31;;;;;;;11.33;5.55;;;;;;;11.82;51.27;101220.61;125250;1099;104300;-78
2022/09/07 01:37:11;;;;;;;13.90;4.17;;;;;;;11.90;51.34;101230.56;126613;1098;104156;-80
2022/09/07 01:39:51;;;;;;;11.20;4.80;;;;;;;11.92;51.28;101232.48;125881;1099;102794;-80
2022/09/07 01:42:28;;;;;;;11.03;4.73;;;;;;;11.87;51.38;101221.73;125750;1098;103280;-80
2022/09/07 01:45:03;;;;;;;11.57;4.30;;;;;;;11.88;51.51;101214.72;125854;1099;104610;-80
2022/09/07 01:47:39;;;;;;;16.23;5.33;;;;;;;11.84;51.85;101215.42;125775;1099;104182;-80
2022/09/07 01:50:21;;;;;;;17.83;4.93;;;;;;;11.79;51.73;101225.74;125743;1099;102255;-80
2022/09/07 01:52:59;;;;;;;13.57;4.93;;;;;;;11.77;51.92;101237.94;125770;1099;102207;-80
2022/09/07 01:55:37;;;;;;;14.77;4.43;;;;;;;11.77;52.21;101230.05;125762;1099;104166;-80
2022/09/07 01:58:13;;;;;;;13.50;5.07;;;;;;;11.77;52.09;101234.42;125777;1099;104610;-80
2022/09/07 02:00:50;;;;;;;11.40;4.47;;;;;;;11.74;52.24;101243.06;125833;1099;104172;-79
2022/09/07 02:03:26;;;;;;;10.90;4.33;;;;;;;11.72;52.05;101242.11;126626;1098;101806;-79
2022/09/07 02:06:02;;;;;;;12.03;5.07;;;;;;;11.71;52.62;101242.93;125896;1099;118471;-79
2022/09/07 02:08:41;;;;;;;17.77;5.00;;;;;;;11.72;52.87;101239.48;125959;1099;104205;-80
2022/09/07 02:11:28;;;;;;;13.70;4.40;;;;;;;11.72;52.78;101235.93;125988;1099;102171;-79
2022/09/07 02:14:08;;;;;;;8.13;4.40;;;;;;;11.72;52.95;101230.67;125766;1099;104204;-79
2022/09/07 02:16:45;;;;;;;13.27;4.87;;;;;;;11.73;52.83;101229.85;125773;1099;104188;-79
2022/09/07 02:19:19;;;;;;;14.33;4.83;;;;;;;11.74;53.17;101232.55;125731;1099;104160;-79
2022/09/07 02:21:56;;;;;;;10.32;4.75;;;;;;;11.75;53.09;101218.58;125793;1099;104181;-79
2022/09/07 02:24:32;;;;;;;8.73;4.90;;;;;;;11.73;53.65;101214.96;126409;1099;102774;-80
2022/09/07 02:27:08;;;;;;;10.77;4.57;;;;;;;11.79;53.59;101217.85;126204;1099;102736;-80
2022/09/07 02:29:39;;;;;;;9.90;4.97;;;;;;;11.79;53.62;101219.59;125814;1099;104156;-80
2022/09/07 02:32:10;;;;;;;9.27;4.53;;;;;;;11.78;54.08;101215.16;125797;1099;104185;-79
2022/09/07 02:34:41;;;;;;;13.03;4.97;;;;;;;11.76;53.96;101220.35;125745;1099;103021;-80
2022/09/07 02:37:14;;;;;;;10.63;4.57;;;;;;;11.72;53.63;101220.16;125856;1099;104265;-79
2022/09/07 02:39:46;;;;;;;10.88;4.40;;;;;;;11.69;53.86;101223.58;125788;1099;102803;-79
2022/09/07 02:42:17;;;;;;;10.47;4.60;;;;;;;11.66;54.06;101226.08;125816;1099;104185;-80
2022/09/07 02:44:49;;;;;;;10.50;4.67;;;;;;;11.64;54.46;101214.57;125829;1099;104085;-81
2022/09/07 02:47:31;;;;;;;11.53;5.10;;;;;;;11.59;54.22;101214.38;125825;1099;104166;-81
2022/09/07 02:50:19;;;;;;;11.77;4.73;;;;;;;11.56;54.51;101214.27;125797;1099;104059;-81
2022/09/07 02:53:08;;;;;;;11.33;4.80;;;;;;;11.55;54.07;101214.20;125886;1098;104185;-79
2022/09/07 02:55:51;;;;;;;12.03;5.13;;;;;;;11.55;54.46;101216.84;125833;1099;104636;-80
2022/09/07 02:58:32;;;;;;;14.07;5.03;;;;;;;11.56;54.52;101211.64;125879;1099;104270;-80
2022/09/07 03:01:09;;;;;;;14.47;4.73;;;;;;;11.56;54.79;101211.64;125818;1099;104405;-80
2022/09/07 03:03:47;;;;;;;11.13;5.20;;;;;;;11.57;54.68;101209.91;125835;1099;104620;-79
2022/09/07 03:06:25;;;;;;;13.70;5.10;;;;;;;11.58;54.74;101214.34;125644;1099;104204;-80
2022/09/07 03:08:59;;;;;;;13.30;5.20;;;;;;;11.58;55.15;101203.83;125779;1099;104304;-80
2022/09/07 03:11:31;;;;;;;9.67;5.03;;;;;;;11.56;54.92;101205.47;124993;1099;104167;-80
2022/09/07 03:14:18;;;;;;;15.65;5.30;;;;;;;11.51;54.88;101200.02;125632;1098;104235;-79
2022/09/07 03:16:50;;;;;;;13.33;4.70;;;;;;;11.48;54.96;101203.43;125737;1099;102658;-80
2022/09/07 03:19:22;;;;;;;15.43;4.77;;;;;;;11.47;54.73;101198.11;125769;1099;104232;-80
2022/09/07 03:21:55;;;;;;;13.00;5.13;;;;;;;11.42;54.84;101203.16;125729;1099;104156;-79
2022/09/07 03:24:26;;;;;;;14.43;5.03;;;;;;;11.36;55.21;101216.03;125739;1099;104152;-79
2022/09/07 03:26:58;;;;;;;15.47;5.00;;;;;;;11.33;55.68;101203.64;125691;1099;104342;-80
2022/09/07 03:29:29;;;;;;;14.30;5.47;;;;;;;11.33;55.74;101213.27;125783;1099;102255;-80
2022/09/07 03:32:02;;;;;;;14.70;5.70;;;;;;;11.33;55.52;101206.27;125795;1097;102801;-79
2022/09/07 03:34:35;;;;;;;17.63;5.40;;;;;;;11.30;55.49;101210.51;125834;1098;104160;-80
2022/09/07 03:37:06;;;;;;;14.13;5.60;;;;;;;11.24;55.72;101207.61;125778;1099;102269;-79
2022/09/07 03:39:37;;;;;;;14.63;4.77;;;;;;;11.22;56.05;101211.88;125745;1099;102145;-79
2022/09/07 03:42:11;;;;;;;10.75;4.90;;;;;;;11.23;56.28;101211.94;125763;1098;102781;-80
2022/09/07 03:44:42;;;;;;;13.40;5.23;;;;;;;11.22;55.88;101204.91;125846;1098;104159;-80
2022/09/07 03:47:13;;;;;;;15.43;5.10;;;;;;;11.25;56.25;101201.50;125758;1098;104259;-81
2022/09/07 03:49:45;;;;;;;12.93;4.83;;;;;;;11.30;56.45;101208.77;125870;1098;104284;-80
2022/09/07 03:52:16;;;;;;;15.50;5.30;;;;;;;11.30;56.28;101219.28;125790;1099;104373;-80
2022/09/07 03:54:50;;;;;;;13.27;5.20;;;;;;;11.31;56.42;101212.28;125841;1099;104178;-80
2022/09/07 03:57:21;;;;;;;16.30;4.95;;;;;;;11.38;55.99;101214.36;125787;1099;104178;-81
2022/09/07 03:59:54;;;;;;;17.13;5.03;;;;;;;11.42;56.30;101208.42;125947;1099;104143;-81
2022/09/07 04:02:26;;;;;;;12.07;4.70;;;;;;;11.49;56.13;101210.46;125849;1099;102263;-82
2022/09/07 04:04:57;;;;;;;12.40;4.97;;;;;;;11.58;56.50;101211.71;125878;1099;104262;-82
2022/09/07 04:07:28;;;;;;;14.50;5.03;;;;;;;11.65;56.30;101211.12;125923;1097;104166;-81
2022/09/07 04:09:59;;;;;;;13.53;5.40;;;;;;;11.71;56.41;101218.38;125815;1099;104162;-81
2022/09/07 04:12:31;;;;;;;11.33;4.80;;;;;;;11.74;56.27;101216.77;125820;1099;104188;-81
2022/09/07 04:15:05;;;;;;;23.97;5.97;;;;;;;11.81;56.38;101221.47;125805;1099;104172;-82
2022/09/07 04:17:34;;;;;;;;;;;;;;;11.90;56.19;101210.41;125719;1099;104166;-81
2022/09/07 04:20:07;;;;;;;10.17;4.67;;;;;;;11.95;56.19;101211.56;125818;1099;102841;-81
2022/09/07 04:22:38;;;;;;;9.73;4.20;;;;;;;11.99;56.05;101220.47;125822;1099;104197;-79
2022/09/07 04:25:10;;;;;;;14.17;5.10;;;;;;;11.98;55.53;101210.77;125713;1099;104297;-80
2022/09/07 04:27:41;;;;;;;10.67;4.20;;;;;;;11.99;55.83;101212.58;125788;1098;103193;-80
2022/09/07 04:30:15;;;;;;;11.33;4.67;;;;;;;12.04;56.09;101208.39;125838;1099;102277;-81
2022/09/07 04:32:47;;;;;;;16.70;4.95;;;;;;;12.13;55.99;101215.77;125849;1099;104259;-80
2022/09/07 04:35:18;;;;;;;18.10;4.60;;;;;;;12.23;55.90;101224.11;125748;1098;104083;-79
2022/09/07 04:37:50;;;;;;;15.80;4.67;;;;;;;12.34;56.02;101220.98;125822;1099;104142;-79
2022/09/07 04:40:21;;;;;;;16.80;5.17;;;;;;;12.39;56.04;101219.46;125854;1098;102219;-80
2022/09/07 04:42:52;;;;;;;16.60;5.53;;;;;;;12.47;56.00;101220.66;125792;1099;104313;-81
2022/09/07 04:45:23;;;;;;;15.77;5.00;;;;;;;12.52;55.99;101220.83;125812;1098;104144;-81
2022/09/07 04:47:54;;;;;;;13.47;4.73;;;;;;;12.52;56.03;101219.09;125699;1099;104255;-80
2022/09/07 04:50:26;;;;;;;14.50;5.23;;;;;;;12.57;56.13;101214.92;125844;1099;104270;-80
2022/09/07 04:52:57;;;;;;;20.27;4.63;;;;;;;12.65;56.01;101206.41;125762;1099;104255;-81
2022/09/07 04:55:28;;;;;;;14.27;4.63;;;;;;;12.70;55.75;101215.37;125765;1099;104328;-80
2022/09/07 04:58:01;;;;;;;13.87;4.00;;;;;;;12.74;54.90;101212.02;125885;1099;104236;-79
2022/09/07 05:00:32;;;;;;;8.40;3.67;;;;;;;12.77;54.99;101204.23;125145;1099;104185;-80
2022/09/07 05:03:03;;;;;;;10.65;3.60;;;;;;;12.80;54.67;101201.72;124891;1099;101886;-79
2022/09/07 05:05:38;;;;;;;9.47;3.70;;;;;;;12.87;54.66;101209.03;125723;1098;104178;-79
2022/09/07 05:08:09;;;;;;;8.23;3.27;;;;;;;12.90;54.26;101201.24;124763;1099;104354;-78
2022/09/07 05:10:50;;;;;;;9.03;3.23;;;;;;;12.94;54.11;101204.88;125066;1099;104188;-79
2022/09/07 05:13:21;;;;;;;12.37;3.30;;;;;;;12.98;53.55;101203.24;125775;1097;104195;-80
2022/09/07 05:15:52;;;;;;;9.13;3.10;;;;;;;13.02;53.37;101198.15;124887;1097;102765;-80
2022/09/07 05:18:24;;;;;;;10.50;2.80;;;;;;;13.11;53.11;101197.59;125684;1099;104251;-79
2022/09/07 05:20:55;;;;;;;9.13;3.30;;;;;;;13.17;53.11;101197.83;125778;1098;103264;-80
2022/09/07 05:23:29;;;;;;;8.17;3.03;;;;;;;13.25;52.80;101198.98;125043;1099;104319;-79
2022/09/07 05:26:04;;;;;;;6.07;2.77;;;;;;;13.30;52.47;101200.04;126812;1098;104089;-79
2022/09/07 05:28:38;;;;;;;6.05;3.35;;;;;;;13.39;52.65;101206.53;125307;1099;104223;-80
2022/09/07 05:31:13;;;;;;;9.90;3.77;;;;;;;13.44;52.40;101202.31;125800;1099;103092;-80
2022/09/07 05:33:56;;;;;;;12.83;3.60;;;;;;;13.51;52.54;101208.69;125776;1099;102379;-78
2022/09/07 05:36:30;;;;;;;12.40;4.03;;;;;;;13.60;51.69;101209.93;125716;1098;102779;-80
2022/09/07 05:39:01;;;;;;;;;;;;;;;13.64;51.06;101195.98;125897;1099;104111;-81
2022/09/07 05:41:40;;;;;;;15.90;4.47;;;;;;;13.72;51.92;101195.36;125744;1099;102267;-78
2022/09/07 05:44:18;;;;;;;12.23;4.10;;;;;;;13.79;51.22;101197.34;124618;1099;104294;-80
2022/09/07 05:46:52;;;;;;;14.37;4.10;;;;;;;13.79;51.05;101197.34;125772;1099;104393;-81
2022/09/07 05:49:25;;;;;;;12.40;4.13;;;;;;;13.85;51.37;101192.27;126498;1097;104319;-80
2022/09/07 05:52:00;;;;;;;13.13;4.33;;;;;;;13.95;51.65;101194.38;125780;1099;104192;-80
2022/09/07 05:54:40;;;;;;;17.50;4.67;;;;;;;14.02;51.29;101199.03;125754;1099;104204;-77
2022/09/07 05:57:15;;;;;;;18.43;4.73;;;;;;;14.08;51.25;101197.42;125851;1098;102399;-79
2022/09/07 05:59:57;;;;;;;17.40;4.70;;;;;;;14.14;51.00;101194.98;126518;1098;102099;-82
2022/09/07 06:02:40;;;;;;;16.57;4.60;;;;;;;14.23;50.87;101192.64;125812;1099;104245;-81
2022/09/07 06:05:20;;;;;;;18.03;4.70;;;;;;;14.28;51.05;101196.31;125968;1099;104161;-82
2022/09/07 06:08:21;;;;;;;14.27;4.20;;;;;;;14.31;50.56;101203.45;125601;1099;102244;-81
2022/09/07 06:14:22;;;;;;;16.23;3.90;;;;;;;14.52;50.10;101205.84;125413;1101;102827;-80
2022/09/07 06:16:59;;;;;;;12.53;4.45;;;;;;;14.58;50.13;101200.75;125403;1099;102002;-80
2022/09/07 06:22:26;;;;;;;10.20;3.70;;;;;;;14.64;49.77;101203.61;125280;1099;104176;-79
2022/09/07 06:25:23;;;;;;;;;;;;;;;;;;;;;
2022/09/07 06:27:58;;;;;;;13.00;4.33;;;;;;;14.79;48.97;101205.83;125573;1099;104265;-79
2022/09/07 06:30:47;;;;;;;13.97;3.63;;;;;;;14.80;48.57;101206.72;125069;1099;104169;-79
2022/09/07 06:33:29;;;;;;;12.47;4.00;;;;;;;14.81;47.93;101212.05;125091;1099;104479;-79
2022/09/07 06:36:18;;;;;;;12.67;4.20;;;;;;;14.88;48.63;101211.39;125042;1103;102323;-78
2022/09/07 06:39:15;;;;;;;6.60;3.40;;;;;;;14.95;48.98;101208.92;125138;1102;104306;-79
2022/09/07 06:42:02;;;;;;;7.70;3.30;;;;;;;15.06;47.94;101213.66;125146;1099;107392;-79
2022/09/07 06:44:42;;;;;;;12.23;4.30;;;;;;;15.22;47.72;101212.37;125682;1102;102812;-79
2022/09/07 06:47:39;;;;;;;10.57;3.60;;;;;;;15.41;48.86;101215.48;126424;1099;102743;-79
2022/09/07 06:50:27;;;;;;;7.97;3.57;;;;;;;15.58;47.75;101208.92;125061;1102;102190;-80
2022/09/07 06:53:10;;;;;;;7.47;3.37;;;;;;;15.77;47.16;101215.63;125112;1099;104156;-79
2022/09/07 06:56:27;;;;;;;10.70;3.60;;;;;;;15.98;46.70;101214.38;125195;1102;104337;-79
2022/09/07 06:59:16;;;;;;;;;;;;;;;;;;;;;
2022/09/07 07:02:11;;;;;;;7.67;3.40;;;;;;;16.28;46.02;101210.67;126561;1098;102256;-79
2022/09/07 07:04:48;;;;;;;6.37;3.00;;;;;;;16.39;45.52;101202.98;125867;1099;102234;-78
2022/09/07 07:07:35;;;;;;;8.53;3.30;;;;;;;16.38;44.19;101217.98;125890;1099;104223;-79
2022/09/07 07:10:16;;;;;;;7.07;3.00;;;;;;;16.45;44.38;101219.02;125742;1099;102236;-79
2022/09/07 07:12:55;;;;;;;12.67;3.57;;;;;;;16.53;44.67;101214.78;125690;1097;104268;-80
2022/09/07 07:15:52;;;;;;;7.20;3.13;;;;;;;16.59;44.47;101217.56;125823;1098;102401;-81
2022/09/07 07:18:55;;;;;;;7.13;2.97;;;;;;;16.68;44.66;101211.59;125821;1099;104183;-80
2022/09/07 07:22:11;;;;;;;6.60;3.10;;;;;;;16.82;44.01;101214.55;125808;1102;104292;-81
2022/09/07 07:25:13;;;;;;;12.93;3.00;;;;;;;16.96;44.01;101212.22;125433;1102;102812;-80
2022/09/07 07:27:50;;;;;;;8.40;3.03;;;;;;;17.11;42.74;101219.58;125189;1102;103103;-78
2022/09/07 07:30:26;;;;;;;10.67;3.40;;;;;;;17.23;43.02;101220.74;125911;1099;104159;-80
2022/09/07 07:33:03;;;;;;;8.50;3.37;;;;;;;17.33;42.08;101223.58;126666;1098;102161;-80
2022/09/07 07:35:50;;;;;;;8.90;3.50;;;;;;;17.42;42.66;101214.03;125827;1099;104166;-80
2022/09/07 07:38:26;;;;;;;7.13;3.50;;;;;;;17.57;42.17;101208.09;126647;1096;102730;-80
2022/09/07 07:41:22;;;;;;;12.60;4.13;;;;;;;17.76;42.00;101205.77;126687;1098;102263;-79
2022/09/07 07:43:59;;;;;;;9.90;3.55;;;;;;;18.03;42.00;101199.17;125724;1097;104245;-79
2022/09/07 07:46:36;;;;;;;8.03;3.77;;;;;;;18.18;37.47;101207.38;125740;1099;104293;-80
2022/09/07 07:49:28;;;;;;;7.70;3.87;;;;;;;18.24;40.80;101201.28;125803;1099;104240;-80
2022/09/07 07:52:34;;;;;;;;;;;;;;;;;;;;;
2022/09/07 07:55:29;;;;;;;10.33;3.53;;;;;;;18.41;39.96;101199.77;125716;1099;104182;-80
2022/09/07 07:58:25;;;;;;;11.70;3.80;;;;;;;18.41;39.00;101193.57;125806;1099;104201;-78
2022/09/07 08:01:11;;;;;;;7.97;3.90;;;;;;;18.57;36.30;101197.33;125727;1099;104252;-78
2022/09/07 08:03:57;;;;;;;9.67;4.33;;;;;;;18.64;38.32;101185.92;125751;1098;104232;-80
2022/09/07 08:06:58;;;;;;;9.97;3.80;;;;;;;18.80;37.19;101200.30;126269;1099;104099;-78
2022/09/07 08:13:19;;;;;;;;;;;;;;;;;;;;;
2022/09/07 08:16:08;;;;;;;7.83;3.40;;;;;;;19.19;38.75;101202.58;125807;1099;102088;-79
2022/09/07 08:18:49;;;;;;;8.43;3.60;;;;;;;19.24;38.43;101199.97;125775;1099;104162;-79
2022/09/07 08:21:40;;;;;;;;;;;;;;;19.32;35.23;101208.95;126459;1098;104788;-79
2022/09/07 08:24:33;;;;;;;;;;;;;;;;;;;;;
2022/09/07 08:27:24;;;;;;;9.43;3.80;;;;;;;19.56;37.11;101192.33;125789;1099;104229;-80
2022/09/07 08:30:10;;;;;;;6.80;3.50;;;;;;;19.64;37.47;101184.42;125770;1099;104160;-78
2022/09/07 08:33:01;;;;;;;10.90;3.80;;;;;;;19.61;37.34;101184.39;126433;1097;104190;-79
2022/09/07 08:35:40;;;;;;;9.13;4.10;;;;;;;19.68;37.77;101172.02;126276;1098;101826;-78
2022/09/07 08:38:21;;;;;;;9.00;3.83;;;;;;;19.74;37.19;101172.07;125316;1099;104168;-82
2022/09/07 08:41:45;;;;;;;10.53;3.87;;;;;;;19.73;36.50;101167.65;125903;1099;104226;-79
2022/09/07 08:44:33;;;;;;;8.97;3.50;;;;;;;19.77;37.87;101155.28;126671;1098;102348;-80
2022/09/07 08:47:29;;;;;;;10.07;4.00;;;;;;;19.84;37.35;101159.78;125714;1099;118808;-79
2022/09/07 08:50:16;;;;;;;8.00;3.60;;;;;;;19.92;37.58;101147.41;125685;1099;103332;-78
2022/09/07 08:53:19;;;;;;;7.60;3.77;;;;;;;20.12;37.14;101139.56;125777;1099;104651;-79
2022/09/07 08:56:02;;;;;;;9.50;4.10;;;;;;;20.18;37.11;101139.61;125683;1098;102410;-79
2022/09/07 08:58:52;;;;;;;7.90;3.80;;;;;;;20.15;37.04;101142.25;125725;1099;104194;-79
2022/09/07 09:01:39;;;;;;;7.47;3.73;;;;;;;20.03;36.71;101137.72;125710;1097;102348;-78
2022/09/07 09:04:25;;;;;;;9.77;3.83;;;;;;;20.09;36.89;101137.76;125694;1099;102758;-79
2022/09/07 09:07:16;;;;;;;7.23;3.47;;;;;;;20.13;36.60;101133.33;125761;1099;104217;-79
2022/09/07 09:10:46;;;;;;;;;;;;;;;;;;;;;
2022/09/07 09:13:50;;;;;;;6.83;3.93;;;;;;;20.14;37.01;101120.92;125807;1098;104249;-78
2022/09/07 09:16:44;;;;;;;8.17;3.40;;;;;;;20.23;36.26;101108.54;125751;1099;104175;-79
2022/09/07 09:19:46;;;;;;;8.77;3.87;;;;;;;20.34;36.59;101113.93;125688;1099;104245;-78
2022/09/07 09:25:30;;;;;;;6.87;3.40;;;;;;;20.48;36.53;101109.55;125259;1099;104155;-78
2022/09/07 09:28:06;;;;;;;7.20;3.25;;;;;;;20.51;36.17;101099.80;125711;1099;104200;-79
2022/09/07 09:31:09;;;;;;;9.33;3.20;;;;;;;20.54;37.09;101098.03;126308;1099;101979;-78
2022/09/07 09:34:05;;;;;;;7.60;3.67;;;;;;;20.61;37.08;101101.61;126258;1099;102915;-78
2022/09/07 09:36:45;;;;;;;8.43;3.60;;;;;;;20.59;37.04;101096.27;125649;1099;104264;-77
2022/09/07 09:39:46;;;;;;;8.20;3.60;;;;;;;20.49;36.56;101094.47;125750;1099;104306;-78
2022/09/07 09:42:26;;;;;;;6.07;3.30;;;;;;;20.40;37.01;101083.77;125747;1099;104265;-78
2022/09/07 09:45:18;;;;;;;10.10;3.30;;;;;;;20.45;36.69;101084.66;126278;1098;104159;-78
2022/09/07 09:48:28;;;;;;;;;;;;;;;;;;;;;
2022/09/07 09:51:15;;;;;;;5.80;3.37;;;;;;;20.62;36.60;101087.41;125798;1098;103251;-77
2022/09/07 09:54:24;;;;;;;4.70;3.13;;;;;;;20.67;36.75;101091.00;125712;1099;104188;-78
2022/09/07 09:57:43;;;;;;;5.70;3.20;;;;;;;20.75;36.57;101080.36;126319;1098;104191;-78
2022/09/07 10:00:30;;;;;;;5.50;3.27;;;;;;;20.90;37.59;101077.73;126527;1098;104188;-79
2022/09/07 10:03:19;;;;;;;7.50;3.00;;;;;;;20.99;37.17;101066.20;125693;1098;104329;-79
2022/09/07 10:06:39;;;;;;;5.00;3.17;;;;;;;21.05;36.95;101071.55;125646;1099;104159;-78
2022/09/07 10:09:19;;;;;;;5.67;3.20;;;;;;;21.15;36.88;101054.64;126920;1097;111565;-77
2022/09/07 10:12:13;;;;;;;6.73;3.30;;;;;;;21.34;36.60;101051.98;127266;1098;102372;-79
2022/09/07 10:15:07;;;;;;;5.20;3.00;;;;;;;21.41;36.89;101051.11;125779;1099;102332;-78
2022/09/07 10:17:55;;;;;;;6.83;3.03;;;;;;;21.43;36.25;101056.45;125636;1099;104233;-80
2022/09/07 10:20:37;;;;;;;9.67;3.40;;;;;;;21.39;36.54;101049.32;125745;1099;102184;-80
2022/09/07 10:23:25;;;;;;;7.73;3.10;;;;;;;21.33;37.04;101055.53;126040;1099;104159;-81
2022/09/07 10:25:58;;;;;;;9.57;3.73;;;;;;;21.27;37.05;101053.78;126633;1098;101828;-79
2022/09/07 10:28:41;;;;;;;7.63;3.30;;;;;;;21.33;36.45;101053.78;125798;1099;104281;-81
2022/09/07 10:31:31;;;;;;;6.53;3.00;;;;;;;21.52;37.28;101049.35;125602;1099;104349;-79
2022/09/07 10:34:15;;;;;;;5.60;3.27;;;;;;;21.77;36.83;101053.75;125671;1099;104061;-81
2022/09/07 10:37:21;;;;;;;6.20;3.23;;;;;;;21.93;37.21;101044.83;124976;1099;104251;-80
2022/09/07 10:40:13;;;;;;;9.30;3.10;;;;;;;22.05;37.08;101051.94;126326;1098;104178;-79
2022/09/07 10:43:10;;;;;;;6.00;3.20;;;;;;;22.00;36.35;101043.02;125713;1099;103095;-78
2022/09/07 10:45:58;;;;;;;4.77;3.00;;;;;;;22.11;36.73;101041.23;125854;1099;104184;-78
2022/09/07 10:48:46;;;;;;;7.40;3.03;;;;;;;22.11;36.87;101033.22;125674;1099;104220;-77
2022/09/07 10:51:42;;;;;;;8.87;3.30;;;;;;;22.12;36.39;101036.77;126368;1098;104156;-79
2022/09/07 10:54:31;;;;;;;6.17;3.17;;;;;;;22.17;37.01;101017.13;125776;1098;104341;-80
2022/09/07 10:57:37;;;;;;;13.00;3.40;;;;;;;22.27;37.33;101020.67;126455;1098;101952;-81
2022/09/07 11:00:44;;;;;;;10.77;3.60;;;;;;;22.39;36.79;101009.05;126457;1097;104249;-82
2022/09/07 11:03:38;;;;;;;;;;;;;;;22.43;36.83;101005.47;125886;1099;104156;-80
2022/09/07 11:06:24;;;;;;;5.70;3.07;;;;;;;22.48;36.94;101006.33;125716;1099;104207;-79
2022/09/07 11:09:27;;;;;;;7.27;3.17;;;;;;;22.51;36.94;100998.29;125953;1098;104243;-79
2022/09/07 11:12:24;;;;;;;8.73;3.70;;;;;;;22.55;37.68;101005.41;125710;1098;103005;-78
2022/09/07 11:15:16;;;;;;;6.12;3.67;;;;;;;22.61;37.56;101000.02;126421;1099;104153;-79
2022/09/07 11:17:56;;;;;;;7.23;3.60;;;;;;;22.60;36.84;100997.36;125661;1099;102755;-80
2022/09/07 11:20:40;;;;;;;7.23;3.50;;;;;;;22.52;37.56;100988.50;125640;1099;105492;-79
2022/09/07 11:24:02;;;;;;;10.03;3.80;;;;;;;22.46;37.38;100986.73;125768;1099;104156;-79
2022/09/07 11:27:07;;;;;;;5.57;3.50;;;;;;;22.52;37.58;100980.48;125608;1097;103647;-78
2022/09/07 11:32:50;;;;;;;7.97;3.40;;;;;;;22.97;37.23;100975.70;125584;1099;104181;-78
2022/09/07 11:35:41;;;;;;;6.83;3.70;;;;;;;23.17;37.65;100970.22;125696;1099;102149;-79
2022/09/07 11:38:28;;;;;;;7.63;3.33;;;;;;;23.24;37.85;100966.56;125775;1099;104237;-78
2022/09/07 11:41:32;;;;;;;7.77;3.20;;;;;;;23.26;37.84;100962.08;125667;1099;118720;-77
2022/09/07 11:44:25;;;;;;;7.87;3.40;;;;;;;23.22;37.68;100959.44;126589;1098;104150;-79
2022/09/07 11:47:12;;;;;;;7.97;3.53;;;;;;;23.19;37.36;100955.02;125643;1099;104156;-78
2022/09/07 11:50:00;;;;;;;9.18;3.47;;;;;;;23.17;37.58;100951.48;125579;1099;102816;-79
2022/09/07 11:52:48;;;;;;;8.80;3.77;;;;;;;23.15;37.57;100946.14;125731;1099;104226;-75
2022/09/07 11:55:46;;;;;;;8.03;3.57;;;;;;;23.09;37.33;100953.31;124926;1099;102156;-77
2022/09/07 11:58:54;;;;;;;5.67;3.27;;;;;;;22.94;37.79;100948.97;125657;1099;103728;-75
2022/09/07 12:01:47;;;;;;;9.10;4.27;;;;;;;22.92;37.95;100938.28;124832;1099;102856;-78
2022/09/07 12:04:44;;;;;;;;;;;;;;;;;;;;;
2022/09/07 12:08:03;;;;;;;8.47;3.70;;;;;;;23.13;38.03;100930.98;125739;1099;104168;-76
2022/09/07 12:11:03;;;;;;;7.60;3.60;;;;;;;23.30;38.60;100922.80;124990;1102;104788;-78
2022/09/07 12:14:03;;;;;;;8.80;3.37;;;;;;;23.39;38.28;100925.37;125621;1099;104323;-77
2022/09/07 12:16:59;;;;;;;7.10;3.33;;;;;;;23.41;38.40;100914.66;125702;1099;102249;-78
2022/09/07 12:20:03;;;;;;;9.90;3.83;;;;;;;23.44;38.12;100914.62;125639;1099;104309;-76
2022/09/07 12:23:08;;;;;;;5.53;3.53;;;;;;;23.36;38.20;100908.44;125912;1098;104195;-80
2022/09/07 12:25:49;;;;;;;7.63;4.03;;;;;;;23.24;38.38;100915.70;125600;1099;104150;-78
2022/09/07 12:29:03;;;;;;;7.63;3.17;;;;;;;23.12;38.74;100915.82;126266;1098;102675;-77
2022/09/07 12:31:54;;;;;;;7.37;3.80;;;;;;;23.14;38.32;100903.33;125236;1099;104252;-77
2022/09/07 12:35:02;;;;;;;5.77;3.33;;;;;;;23.25;38.61;100909.45;125059;1099;102302;-78
2022/09/07 12:37:49;;;;;;;9.73;3.60;;;;;;;23.35;38.41;100898.66;124989;1098;102736;-78
2022/09/07 12:41:04;;;;;;;6.23;3.23;;;;;;;23.40;38.79;100902.16;124995;1099;103096;-77
2022/09/07 12:43:58;;;;;;;9.20;3.40;;;;;;;23.44;38.52;100896.75;124244;1102;107020;-79
2022/09/07 12:46:52;;;;;;;7.10;3.70;;;;;;;23.55;38.63;100888.59;124359;1102;104197;-76